createdAt,value
2022-10-19T00:00:51.810Z,3.60
2022-10-19T00:01:51.859Z,2.80
2022-10-19T00:02:51.761Z,3.40
2022-10-19T00:03:51.764Z,2.90
2022-10-19T00:04:51.712Z,3.20
2022-10-19T00:05:51.687Z,3.20
2022-10-19T00:06:51.658Z,3.20
2022-10-19T00:07:51.636Z,3.00
2022-10-19T00:08:51.613Z,3.20
2022-10-19T00:09:51.587Z,3.40
2022-10-19T00:10:51.560Z,3.20
2022-10-19T00:11:51.559Z,3.50
2022-10-19T00:12:51.513Z,3.40
2022-10-19T00:13:51.490Z,3.40
2022-10-19T00:14:51.462Z,3.10
2022-10-19T00:15:51.440Z,3.30
2022-10-19T00:16:51.410Z,3.10
2022-10-19T00:17:51.391Z,3.30
2022-10-19T00:18:51.362Z,3.20
2022-10-19T00:19:51.339Z,3.70
2022-10-19T00:20:51.311Z,3.30
2022-10-19T00:22:51.259Z,3.60
2022-10-19T00:23:51.242Z,3.40
2022-10-19T00:24:51.211Z,3.20
2022-10-19T00:25:51.190Z,3.30
2022-10-19T00:26:51.159Z,3.50
2022-10-19T00:27:51.157Z,3.30
2022-10-19T00:28:51.154Z,3.40
2022-10-19T00:29:51.088Z,3.40
2022-10-19T00:30:51.066Z,3.30
2022-10-19T00:31:51.046Z,3.40
2022-10-19T00:32:51.011Z,3.50
2022-10-19T00:33:50.988Z,3.20
2022-10-19T00:34:50.960Z,3.60
2022-10-19T00:35:50.937Z,3.30
2022-10-19T00:36:50.912Z,3.70
2022-10-19T00:37:50.888Z,3.30
2022-10-19T00:38:50.870Z,3.70
2022-10-19T00:40:50.811Z,3.60
2022-10-19T00:41:50.789Z,3.50
2022-10-19T00:42:50.760Z,3.40
2022-10-19T00:43:50.755Z,3.40
2022-10-19T00:44:50.710Z,3.80
2022-10-19T00:45:50.688Z,3.30
2022-10-19T00:46:50.659Z,3.20
2022-10-19T00:47:50.639Z,3.40
2022-10-19T00:48:50.614Z,3.70
2022-10-19T00:49:50.589Z,3.60
2022-10-19T00:50:50.559Z,3.70
2022-10-19T00:51:50.536Z,4.10
2022-10-19T00:52:50.510Z,4.10
2022-10-19T00:53:50.487Z,3.60
2022-10-19T00:54:50.460Z,3.80
2022-10-19T00:55:50.438Z,3.60
2022-10-19T00:56:50.410Z,3.60
2022-10-19T00:58:50.360Z,3.40
2022-10-19T00:59:50.354Z,3.70
2022-10-19T01:00:50.360Z,3.60
2022-10-19T01:01:50.288Z,3.80
2022-10-19T01:02:50.313Z,3.40
2022-10-19T01:03:50.240Z,3.30
2022-10-19T01:04:50.210Z,3.10
2022-10-19T01:05:50.185Z,3.70
2022-10-19T01:07:50.136Z,3.50
2022-10-19T01:08:50.114Z,4.00
2022-10-19T01:09:50.085Z,3.50
2022-10-19T01:10:50.058Z,3.90
2022-10-19T01:11:50.049Z,3.80
2022-10-19T01:12:50.009Z,3.90
2022-10-19T01:13:49.986Z,3.40
2022-10-19T01:14:49.956Z,3.50
2022-10-19T01:15:50.052Z,3.30
2022-10-19T01:16:49.908Z,3.50
2022-10-19T01:17:49.899Z,3.60
2022-10-19T01:18:49.859Z,3.90
2022-10-19T01:19:49.837Z,3.10
2022-10-19T01:20:49.808Z,3.50
2022-10-19T01:21:49.785Z,3.70
2022-10-19T01:22:49.762Z,3.50
2022-10-19T01:23:49.734Z,3.20
2022-10-19T01:24:49.754Z,4.00
2022-10-19T01:25:49.686Z,3.60
2022-10-19T01:26:49.658Z,3.50
2022-10-19T01:27:49.637Z,3.40
2022-10-19T01:28:49.647Z,3.70
2022-10-19T01:29:49.588Z,3.50
2022-10-19T01:30:49.558Z,3.80
2022-10-19T01:31:49.555Z,3.50
2022-10-19T01:32:49.509Z,3.50
2022-10-19T01:33:49.538Z,3.70
2022-10-19T01:34:49.458Z,3.50
2022-10-19T01:35:49.433Z,3.90
2022-10-19T01:36:49.408Z,3.50
2022-10-19T01:37:49.396Z,3.20
2022-10-19T01:38:49.357Z,3.50
2022-10-19T01:39:49.991Z,3.70
2022-10-19T01:40:49.308Z,3.90
2022-10-19T01:41:49.283Z,3.10
2022-10-19T01:42:49.288Z,3.40
2022-10-19T01:43:49.235Z,3.50
2022-10-19T01:44:49.204Z,3.40
2022-10-19T01:45:49.184Z,3.90
2022-10-19T01:46:49.155Z,3.40
2022-10-19T01:47:49.153Z,3.30
2022-10-19T01:48:49.103Z,3.10
2022-10-19T01:49:49.084Z,3.50
2022-10-19T01:52:16.560Z,3.60
2022-10-19T01:53:16.535Z,3.60
2022-10-19T01:54:16.509Z,3.50
2022-10-19T01:55:16.486Z,3.40
2022-10-19T01:56:16.455Z,3.50
2022-10-19T01:57:16.438Z,3.30
2022-10-19T01:58:16.405Z,3.70
2022-10-19T01:59:16.382Z,3.80
2022-10-19T02:00:16.354Z,3.50
2022-10-19T02:01:16.332Z,4.30
2022-10-19T02:02:16.303Z,4.00
2022-10-19T02:03:16.296Z,3.60
2022-10-19T02:04:16.254Z,3.70
2022-10-19T02:05:16.227Z,3.50
2022-10-19T02:06:16.199Z,3.90
2022-10-19T02:07:16.177Z,3.70
2022-10-19T02:08:16.151Z,3.70
2022-10-19T02:09:16.126Z,3.60
2022-10-19T02:10:16.102Z,3.40
2022-10-19T02:11:16.075Z,3.70
2022-10-19T02:12:16.045Z,3.70
2022-10-19T02:13:16.025Z,3.30
2022-10-19T02:14:15.995Z,3.40
2022-10-19T02:15:15.974Z,3.00
2022-10-19T02:16:15.945Z,3.10
2022-10-19T02:17:15.922Z,3.40
2022-10-19T02:18:15.892Z,3.10
2022-10-19T02:19:15.937Z,3.00
2022-10-19T02:20:15.843Z,3.50
2022-10-19T02:21:15.820Z,3.00
2022-10-19T02:22:15.796Z,2.90
2022-10-19T02:23:15.768Z,3.10
2022-10-19T02:24:15.741Z,3.20
2022-10-19T02:25:15.716Z,3.50
2022-10-19T02:26:15.694Z,3.00
2022-10-19T02:27:15.667Z,2.90
2022-10-19T02:28:15.678Z,2.80
2022-10-19T02:29:15.614Z,3.10
2022-10-19T02:30:15.588Z,3.30
2022-10-19T02:31:15.563Z,3.00
2022-10-19T02:32:15.536Z,3.00
2022-10-19T02:33:15.515Z,3.30
2022-10-19T02:34:15.488Z,2.80
2022-10-19T02:35:15.484Z,3.00
2022-10-19T02:36:15.436Z,3.30
2022-10-19T02:37:15.492Z,3.30
2022-10-19T02:38:15.387Z,3.10
2022-10-19T02:39:15.363Z,3.10
2022-10-19T02:40:15.336Z,3.30
2022-10-19T02:41:15.310Z,3.00
2022-10-19T02:42:15.285Z,3.00
2022-10-19T02:43:15.259Z,3.10
2022-10-19T02:44:15.230Z,3.10
2022-10-19T02:45:15.208Z,3.50
2022-10-19T02:46:15.182Z,2.60
2022-10-19T02:47:15.158Z,3.40
2022-10-19T02:48:15.130Z,3.30
2022-10-19T02:49:15.105Z,3.10
2022-10-19T02:50:15.083Z,3.30
2022-10-19T02:51:15.076Z,3.00
2022-10-19T02:52:15.030Z,3.10
2022-10-19T02:53:15.000Z,3.30
2022-10-19T02:54:14.976Z,2.70
2022-10-19T02:55:14.950Z,2.60
2022-10-19T02:56:14.928Z,3.10
2022-10-19T02:57:14.900Z,3.10
2022-10-19T02:58:14.872Z,3.20
2022-10-19T02:59:14.850Z,2.80
2022-10-19T03:00:14.820Z,2.70
2022-10-19T03:01:14.860Z,2.70
2022-10-19T03:02:14.775Z,2.90
2022-10-19T03:03:14.751Z,2.90
2022-10-19T03:04:14.719Z,3.00
2022-10-19T03:05:14.697Z,3.10
2022-10-19T03:06:14.668Z,3.00
2022-10-19T03:07:14.672Z,2.90
2022-10-19T03:08:14.617Z,2.80
2022-10-19T03:09:14.593Z,2.80
2022-10-19T03:10:14.566Z,3.10
2022-10-19T03:11:14.544Z,2.80
2022-10-19T03:12:14.513Z,3.10
2022-10-19T03:13:14.492Z,2.50
2022-10-19T03:14:14.470Z,2.90
2022-10-19T03:15:14.455Z,3.00
2022-10-19T03:16:14.413Z,2.70
2022-10-19T03:17:14.390Z,2.70
2022-10-19T03:18:14.365Z,2.60
2022-10-19T03:19:14.339Z,2.70
2022-10-19T03:20:14.312Z,3.00
2022-10-19T03:21:14.286Z,2.90
2022-10-19T03:22:14.265Z,3.10
2022-10-19T03:23:14.257Z,2.70
2022-10-19T03:24:14.211Z,2.80
2022-10-19T03:25:14.183Z,2.60
2022-10-19T03:26:14.157Z,2.90
2022-10-19T03:27:14.133Z,2.80
2022-10-19T03:28:14.106Z,2.80
2022-10-19T03:29:14.083Z,2.80
2022-10-19T03:30:14.055Z,3.00
2022-10-19T03:31:14.030Z,2.60
2022-10-19T03:32:14.005Z,2.60
2022-10-19T03:33:14.039Z,2.80
2022-10-19T03:34:13.958Z,3.10
2022-10-19T03:35:13.934Z,2.80
2022-10-19T03:36:13.899Z,2.90
2022-10-19T03:37:13.878Z,3.00
2022-10-19T03:38:13.849Z,3.00
2022-10-19T03:39:13.846Z,2.90
2022-10-19T03:40:13.798Z,3.10
2022-10-19T03:41:13.777Z,2.90
2022-10-19T03:42:13.751Z,2.90
2022-10-19T03:43:13.724Z,3.30
2022-10-19T03:44:13.695Z,3.00
2022-10-19T03:45:13.670Z,3.00
2022-10-19T03:46:13.644Z,3.10
2022-10-19T03:47:13.625Z,3.00
2022-10-19T03:48:13.599Z,3.20
2022-10-19T03:49:13.568Z,3.30
2022-10-19T03:50:13.543Z,3.40
2022-10-19T03:51:13.515Z,2.90
2022-10-19T03:52:13.486Z,3.60
2022-10-19T03:53:13.464Z,3.60
2022-10-19T03:54:13.437Z,3.40
2022-10-19T03:55:13.516Z,3.40
2022-10-19T03:56:13.438Z,3.30
2022-10-19T03:57:13.384Z,3.10
2022-10-19T03:58:13.398Z,3.10
2022-10-19T03:59:13.373Z,3.90
2022-10-19T04:00:13.322Z,3.40
2022-10-19T04:01:13.406Z,3.40
2022-10-19T04:02:13.269Z,3.70
2022-10-19T04:03:13.209Z,3.60
2022-10-19T04:04:13.178Z,3.30
2022-10-19T04:05:13.151Z,3.20
2022-10-19T04:06:15.756Z,3.10
2022-10-19T04:07:13.102Z,3.10
2022-10-19T04:08:13.072Z,3.30
2022-10-19T04:09:13.048Z,2.80
2022-10-19T04:10:13.020Z,2.90
2022-10-19T04:11:13.015Z,3.10
2022-10-19T04:12:12.968Z,3.00
2022-10-19T04:13:12.946Z,3.10
2022-10-19T04:14:19.030Z,3.00
2022-10-19T04:15:12.893Z,3.20
2022-10-19T04:16:12.867Z,2.80
2022-10-19T04:17:12.839Z,3.10
2022-10-19T04:18:12.813Z,3.10
2022-10-19T04:19:12.790Z,2.50
2022-10-19T04:20:12.769Z,2.80
2022-10-19T04:21:12.739Z,2.90
2022-10-19T04:22:12.712Z,2.80
2022-10-19T04:23:12.744Z,2.70
2022-10-19T04:24:12.659Z,2.80
2022-10-19T04:25:12.635Z,2.60
2022-10-19T04:26:12.608Z,2.50
2022-10-19T04:27:12.603Z,3.10
2022-10-19T04:28:12.557Z,2.60
2022-10-19T04:29:12.613Z,2.90
2022-10-19T04:30:12.508Z,2.80
2022-10-19T04:31:12.482Z,3.30
2022-10-19T04:32:12.455Z,3.50
2022-10-19T04:33:12.428Z,3.40
2022-10-19T04:34:12.411Z,4.10
2022-10-19T04:35:12.380Z,4.80
2022-10-19T04:36:12.351Z,5.60
2022-10-19T04:37:12.325Z,5.70
2022-10-19T04:38:12.298Z,5.70
2022-10-19T04:39:12.274Z,6.10
2022-10-19T04:40:14.979Z,5.40
2022-10-19T04:41:12.222Z,5.00
2022-10-19T04:42:12.195Z,5.60
2022-10-19T04:43:12.187Z,5.50
2022-10-19T04:44:12.221Z,6.10
2022-10-19T04:45:12.119Z,6.20
2022-10-19T04:46:12.095Z,5.80
2022-10-19T04:47:12.067Z,6.10
2022-10-19T04:48:15.042Z,6.20
2022-10-19T04:49:15.123Z,5.70
2022-10-19T04:50:11.987Z,6.20
2022-10-19T04:51:11.967Z,6.10
2022-10-19T04:52:11.934Z,5.70
2022-10-19T04:53:11.968Z,6.50
2022-10-19T04:54:11.886Z,6.10
2022-10-19T04:55:11.861Z,5.50
2022-10-19T04:56:11.830Z,6.30
2022-10-19T04:57:11.811Z,5.30
2022-10-19T04:58:11.780Z,5.00
2022-10-19T04:59:11.774Z,5.40
2022-10-19T05:00:11.728Z,4.80
2022-10-19T05:01:11.741Z,5.10
2022-10-19T05:02:11.676Z,4.90
2022-10-19T05:03:11.653Z,4.50
2022-10-19T05:04:11.623Z,4.60
2022-10-19T05:05:11.598Z,4.20
2022-10-19T05:06:11.575Z,4.90
2022-10-19T05:07:11.549Z,4.30
2022-10-19T05:08:11.522Z,4.20
2022-10-19T05:09:11.499Z,4.10
2022-10-19T05:10:11.468Z,4.40
2022-10-19T05:11:11.442Z,4.10
2022-10-19T05:12:11.418Z,4.40
2022-10-19T05:13:11.394Z,4.60
2022-10-19T05:14:11.366Z,3.80
2022-10-19T05:15:11.359Z,4.00
2022-10-19T05:16:11.312Z,3.80
2022-10-19T05:17:11.287Z,4.10
2022-10-19T05:18:11.261Z,4.40
2022-10-19T05:19:11.237Z,3.90
2022-10-19T05:20:11.209Z,4.10
2022-10-19T05:21:11.186Z,4.30
2022-10-19T05:22:11.158Z,4.20
2022-10-19T05:23:11.131Z,4.40
2022-10-19T05:24:11.109Z,4.10
2022-10-19T05:25:11.081Z,4.10
2022-10-19T05:26:11.052Z,3.90
2022-10-19T05:27:11.028Z,4.20
2022-10-19T05:28:11.000Z,4.20
2022-10-19T05:29:11.039Z,4.50
2022-10-19T05:30:10.950Z,4.20
2022-10-19T05:31:10.948Z,4.20
2022-10-19T05:32:10.898Z,4.70
2022-10-19T05:33:10.872Z,4.70
2022-10-19T05:34:10.941Z,4.50
2022-10-19T05:35:10.821Z,4.60
2022-10-19T05:36:10.792Z,5.40
2022-10-19T05:37:10.767Z,6.00
2022-10-19T05:38:10.742Z,5.20
2022-10-19T05:39:10.719Z,4.90
2022-10-19T05:40:10.689Z,5.00
2022-10-19T05:41:10.660Z,4.70
2022-10-19T05:42:10.635Z,4.70
2022-10-19T05:43:10.614Z,4.20
2022-10-19T05:44:10.582Z,4.00
2022-10-19T05:45:10.572Z,4.10
2022-10-19T05:46:10.533Z,4.10
2022-10-19T05:47:10.533Z,4.10
2022-10-19T05:48:10.480Z,3.90
2022-10-19T05:49:10.450Z,4.10
2022-10-19T05:50:10.467Z,4.00
2022-10-19T05:51:10.401Z,4.40
2022-10-19T05:52:10.416Z,4.20
2022-10-19T05:53:10.350Z,3.90
2022-10-19T05:54:10.318Z,3.50
2022-10-19T05:55:10.297Z,4.00
2022-10-19T05:56:10.267Z,4.20
2022-10-19T05:57:10.246Z,3.80
2022-10-19T05:58:10.217Z,4.10
2022-10-19T05:59:10.262Z,3.40
2022-10-19T06:00:10.163Z,3.50
2022-10-19T06:01:10.138Z,3.60
2022-10-19T06:02:10.154Z,3.40
2022-10-19T06:03:10.104Z,3.70
2022-10-19T06:04:10.076Z,3.60
2022-10-19T06:05:10.035Z,3.50
2022-10-19T06:06:10.008Z,4.00
2022-10-19T06:07:09.981Z,3.90
2022-10-19T06:08:09.957Z,4.40
2022-10-19T06:09:09.928Z,3.80
2022-10-19T06:10:09.910Z,5.00
2022-10-19T06:11:09.876Z,5.20
2022-10-19T06:12:09.851Z,4.80
2022-10-19T06:13:09.824Z,5.40
2022-10-19T06:14:09.799Z,5.20
2022-10-19T06:15:09.772Z,5.30
2022-10-19T06:16:09.750Z,6.30
2022-10-19T06:17:09.722Z,5.80
2022-10-19T06:18:09.697Z,4.70
2022-10-19T06:19:09.687Z,4.30
2022-10-19T06:20:09.643Z,5.40
2022-10-19T06:21:09.617Z,5.50
2022-10-19T06:22:09.594Z,5.70
2022-10-19T06:23:09.565Z,5.60
2022-10-19T06:24:09.539Z,6.30
2022-10-19T06:25:09.511Z,7.50
2022-10-19T06:26:09.486Z,6.00
2022-10-19T06:27:09.497Z,5.80
2022-10-19T06:28:09.487Z,6.80
2022-10-19T06:29:09.411Z,6.40
2022-10-19T06:30:09.385Z,6.20
2022-10-19T06:31:09.651Z,5.70
2022-10-19T06:32:09.331Z,6.00
2022-10-19T06:33:09.416Z,6.20
2022-10-19T06:34:09.322Z,5.80
2022-10-19T06:35:09.271Z,6.00
2022-10-19T06:36:09.229Z,5.10
2022-10-19T06:37:09.201Z,5.40
2022-10-19T06:38:09.176Z,5.10
2022-10-19T06:39:09.148Z,4.90
2022-10-19T06:40:09.152Z,5.00
2022-10-19T06:41:09.095Z,5.00
2022-10-19T06:42:09.074Z,4.60
2022-10-19T06:43:09.045Z,4.80
2022-10-19T06:44:09.022Z,4.60
2022-10-19T06:45:08.993Z,4.70
2022-10-19T06:46:08.968Z,4.50
2022-10-19T06:47:08.943Z,5.20
2022-10-19T06:48:08.928Z,5.10
2022-10-19T06:49:08.901Z,5.00
2022-10-19T06:50:08.864Z,5.10
2022-10-19T06:51:08.856Z,5.40
2022-10-19T06:52:08.812Z,5.40
2022-10-19T06:53:08.784Z,5.10
2022-10-19T06:54:08.760Z,5.40
2022-10-19T06:55:08.738Z,5.00
2022-10-19T06:56:08.710Z,5.40
2022-10-19T06:57:08.681Z,5.60
2022-10-19T06:58:08.659Z,5.50
2022-10-19T06:59:08.630Z,5.30
2022-10-19T07:00:08.609Z,5.60
2022-10-19T07:01:08.672Z,6.10
2022-10-19T07:02:08.557Z,5.70
2022-10-19T07:03:08.528Z,5.90
2022-10-19T07:04:08.499Z,5.90
2022-10-19T07:05:08.476Z,5.40
2022-10-19T07:06:08.452Z,5.70
2022-10-19T07:07:08.443Z,5.90
2022-10-19T07:08:08.466Z,5.50
2022-10-19T07:09:08.373Z,6.30
2022-10-19T07:10:08.403Z,5.80
2022-10-19T07:11:08.321Z,6.30
2022-10-19T07:12:08.320Z,6.10
2022-10-19T07:14:08.318Z,5.90
2022-10-19T07:15:08.218Z,6.40
2022-10-19T07:16:08.193Z,6.40
2022-10-19T07:17:08.171Z,6.20
2022-10-19T07:18:08.145Z,6.50
2022-10-19T07:19:08.167Z,6.80
2022-10-19T07:20:08.092Z,6.80
2022-10-19T07:21:08.063Z,6.70
2022-10-19T07:22:08.040Z,7.40
2022-10-19T07:23:08.036Z,7.00
2022-10-19T07:24:07.997Z,6.70
2022-10-19T07:25:07.967Z,7.80
2022-10-19T07:26:07.943Z,7.00
2022-10-19T07:27:07.915Z,7.90
2022-10-19T07:28:07.888Z,7.60
2022-10-19T07:29:07.863Z,7.90
2022-10-19T07:30:07.840Z,7.70
2022-10-19T07:31:07.815Z,7.30
2022-10-19T07:32:07.789Z,7.80
2022-10-19T07:33:07.894Z,8.20
2022-10-19T07:34:07.739Z,8.50
2022-10-19T07:35:07.712Z,7.80
2022-10-19T07:36:07.687Z,7.40
2022-10-19T07:37:07.662Z,7.80
2022-10-19T07:38:07.638Z,7.80
2022-10-19T07:39:07.631Z,7.40
2022-10-19T07:40:07.588Z,7.40
2022-10-19T07:41:07.566Z,7.70
2022-10-19T07:42:07.540Z,7.30
2022-10-19T07:43:07.510Z,7.40
2022-10-19T07:44:08.971Z,8.00
2022-10-19T07:45:07.459Z,6.90
2022-10-19T07:46:07.437Z,7.00
2022-10-19T07:47:07.410Z,6.70
2022-10-19T07:48:07.389Z,6.70
2022-10-19T07:49:07.361Z,7.10
2022-10-19T07:50:07.336Z,6.80
2022-10-19T07:51:07.310Z,6.60
2022-10-19T07:52:07.286Z,6.90
2022-10-19T07:53:07.259Z,6.70
2022-10-19T07:54:07.238Z,6.70
2022-10-19T07:55:07.230Z,6.40
2022-10-19T07:56:07.184Z,6.00
2022-10-19T07:57:07.161Z,6.10
2022-10-19T07:58:07.137Z,6.10
2022-10-19T07:59:07.109Z,6.30
2022-10-19T08:00:07.085Z,6.10
2022-10-19T08:01:07.060Z,5.10
2022-10-19T08:02:07.084Z,5.60
2022-10-19T08:04:55.619Z,5.60
2022-10-19T08:05:10.466Z,5.40
2022-10-19T08:06:06.939Z,5.50
2022-10-19T08:07:06.910Z,5.50
2022-10-19T08:08:06.888Z,5.90
2022-10-19T08:09:06.947Z,5.30
2022-10-19T08:10:06.836Z,5.20
2022-10-19T08:11:06.839Z,5.10
2022-10-19T08:12:06.790Z,5.50
2022-10-19T08:13:06.765Z,5.30
2022-10-19T08:14:06.740Z,5.10
2022-10-19T08:15:06.717Z,5.90
2022-10-19T08:16:06.692Z,5.60
2022-10-19T08:17:06.664Z,5.10
2022-10-19T08:18:06.641Z,5.30
2022-10-19T08:19:06.613Z,4.70
2022-10-19T08:20:06.596Z,5.60
2022-10-19T08:21:06.565Z,5.80
2022-10-19T08:22:06.547Z,5.00
2022-10-19T08:23:06.517Z,5.40
2022-10-19T08:24:06.491Z,5.10
2022-10-19T08:25:06.470Z,5.10
2022-10-19T08:26:06.445Z,5.20
2022-10-19T08:27:06.439Z,5.20
2022-10-19T08:28:06.396Z,5.30
2022-10-19T08:29:06.370Z,4.90
2022-10-19T08:30:06.345Z,4.90
2022-10-19T08:31:06.321Z,5.10
2022-10-19T08:32:06.300Z,4.90
2022-10-19T08:33:06.274Z,4.90
2022-10-19T08:34:06.248Z,4.90
2022-10-19T08:35:09.979Z,4.90
2022-10-19T08:36:06.200Z,4.90
2022-10-19T08:37:14.758Z,4.70
2022-10-19T08:38:06.152Z,5.30
2022-10-19T08:39:06.128Z,5.00
2022-10-19T08:40:06.101Z,4.70
2022-10-19T08:41:06.077Z,4.80
2022-10-19T08:42:06.053Z,4.90
2022-10-19T08:43:06.048Z,5.30
2022-10-19T08:44:09.191Z,4.70
2022-10-19T08:45:05.993Z,4.80
2022-10-19T08:46:05.964Z,4.90
2022-10-19T08:47:07.656Z,5.00
2022-10-19T08:48:05.911Z,5.10
2022-10-19T08:49:05.883Z,4.40
2022-10-19T08:50:05.862Z,5.10
2022-10-19T08:51:05.840Z,4.60
2022-10-19T08:52:05.816Z,4.70
2022-10-19T08:53:05.790Z,4.80
2022-10-19T08:54:05.769Z,4.40
2022-10-19T08:55:05.746Z,4.60
2022-10-19T08:56:05.719Z,4.40
2022-10-19T08:57:05.695Z,4.30
2022-10-19T08:58:05.670Z,4.30
2022-10-19T08:59:05.663Z,4.20
2022-10-19T09:00:05.623Z,4.00
2022-10-19T09:01:05.600Z,4.40
2022-10-19T09:02:05.585Z,4.40
2022-10-19T09:03:05.553Z,4.40
2022-10-19T09:04:05.528Z,4.20
2022-10-19T09:05:05.503Z,3.70
2022-10-19T09:06:05.481Z,3.90
2022-10-19T09:07:05.454Z,3.60
2022-10-19T09:08:05.431Z,3.90
2022-10-19T09:09:05.490Z,3.60
2022-10-19T09:10:05.390Z,3.90
2022-10-19T09:11:05.366Z,4.10
2022-10-19T09:12:05.338Z,3.60
2022-10-19T09:13:05.315Z,3.40
2022-10-19T09:14:06.106Z,3.80
2022-10-19T09:15:05.286Z,3.50
2022-10-19T09:16:05.241Z,3.40
2022-10-19T09:17:05.221Z,3.60
2022-10-19T09:18:05.194Z,3.50
2022-10-19T09:19:05.217Z,3.40
2022-10-19T09:20:05.146Z,3.70
2022-10-19T09:21:05.175Z,3.20
2022-10-19T09:22:05.107Z,3.60
2022-10-19T09:23:07.602Z,3.50
2022-10-19T09:24:05.053Z,3.40
2022-10-19T09:25:05.035Z,4.10
2022-10-19T09:26:05.007Z,3.50
2022-10-19T09:27:04.981Z,3.50
2022-10-19T09:28:04.961Z,3.10
2022-10-19T09:29:04.935Z,3.30
2022-10-19T09:30:04.916Z,3.20
2022-10-19T09:31:04.930Z,3.40
2022-10-19T09:32:04.867Z,3.10
2022-10-19T09:33:04.843Z,2.70
2022-10-19T09:34:04.817Z,2.40
2022-10-19T09:35:04.796Z,2.60
2022-10-19T09:36:04.770Z,2.40
2022-10-19T09:37:04.841Z,2.30
2022-10-19T09:38:04.728Z,2.30
2022-10-19T09:39:04.705Z,2.40
2022-10-19T09:40:04.676Z,1.90
2022-10-19T09:41:04.657Z,2.10
2022-10-19T09:42:04.633Z,2.10
2022-10-19T09:43:04.609Z,2.00
2022-10-19T09:44:04.584Z,2.00
2022-10-19T09:45:04.561Z,2.50
2022-10-19T09:46:11.613Z,2.10
2022-10-19T09:47:04.867Z,2.10
2022-10-19T09:48:08.785Z,2.00
2022-10-19T09:49:04.468Z,2.00
2022-10-19T09:50:04.447Z,1.80
2022-10-19T09:51:04.425Z,1.90
2022-10-19T09:52:04.402Z,1.90
2022-10-19T09:53:04.379Z,1.80
2022-10-19T09:54:04.359Z,2.00
2022-10-19T09:55:04.333Z,1.90
2022-10-19T09:56:04.316Z,1.80
2022-10-19T09:57:04.398Z,2.00
2022-10-19T09:58:04.268Z,1.90
2022-10-19T09:59:04.247Z,1.70
2022-10-19T10:00:04.228Z,2.00
2022-10-19T10:01:04.202Z,2.20
2022-10-19T10:02:04.191Z,2.20
2022-10-19T10:03:04.180Z,2.10
2022-10-19T10:04:04.137Z,2.50
2022-10-19T10:05:04.112Z,2.20
2022-10-19T10:06:04.095Z,1.90
2022-10-19T10:07:04.100Z,2.10
2022-10-19T10:08:04.051Z,2.00
2022-10-19T10:09:04.149Z,1.80
2022-10-19T10:10:04.008Z,1.90
2022-10-19T10:11:03.984Z,1.70
2022-10-19T10:12:03.972Z,1.60
2022-10-19T10:13:03.944Z,1.80
2022-10-19T10:14:06.171Z,1.80
2022-10-19T10:15:03.901Z,1.70
2022-10-19T10:16:03.879Z,1.80
2022-10-19T10:17:03.971Z,1.60
2022-10-19T10:18:03.838Z,2.10
2022-10-19T10:19:03.832Z,1.60
2022-10-19T10:20:03.796Z,1.80
2022-10-19T10:21:05.893Z,1.90
2022-10-19T10:22:03.780Z,1.90
2022-10-19T10:23:03.733Z,1.70
2022-10-19T10:24:03.708Z,1.70
2022-10-19T10:25:03.687Z,1.90
2022-10-19T10:26:03.663Z,1.70
2022-10-19T10:27:03.718Z,2.00
2022-10-19T10:28:03.620Z,1.90
2022-10-19T10:29:03.599Z,1.70
2022-10-19T10:30:03.579Z,1.70
2022-10-19T10:31:03.558Z,1.80
2022-10-19T10:32:03.542Z,1.60
2022-10-19T10:33:13.497Z,1.40
2022-10-19T10:34:12.255Z,1.50
2022-10-19T10:35:03.494Z,1.40
2022-10-19T10:36:03.448Z,1.50
2022-10-19T10:37:03.477Z,1.30
2022-10-19T10:38:03.409Z,1.50
2022-10-19T10:40:45.810Z,1.60
2022-10-19T10:41:45.787Z,1.70
2022-10-19T10:42:45.765Z,1.40
2022-10-19T10:43:45.788Z,1.40
2022-10-19T10:44:45.723Z,1.80
2022-10-19T10:45:45.704Z,1.60
2022-10-19T10:46:45.682Z,1.50
2022-10-19T10:47:45.660Z,1.40
2022-10-19T10:48:47.017Z,1.70
2022-10-19T10:49:45.620Z,1.50
2022-10-19T10:50:45.615Z,1.50
2022-10-19T10:51:49.234Z,1.60
2022-10-19T10:52:45.555Z,1.90
2022-10-19T10:53:45.537Z,1.60
2022-10-19T10:54:45.512Z,1.70
2022-10-19T10:55:45.494Z,1.40
2022-10-19T10:56:45.469Z,1.60
2022-10-19T10:57:45.452Z,1.60
2022-10-19T10:58:45.426Z,1.80
2022-10-19T10:59:45.773Z,1.90
2022-10-19T11:00:45.385Z,1.60
2022-10-19T11:01:45.466Z,1.70
2022-10-19T11:02:45.344Z,1.80
2022-10-19T11:03:45.324Z,1.40
2022-10-19T11:04:47.451Z,1.80
2022-10-19T11:05:45.280Z,1.80
2022-10-19T11:06:45.283Z,1.50
2022-10-19T11:07:45.239Z,2.10
2022-10-19T11:08:45.243Z,1.80
2022-10-19T11:09:45.196Z,1.70
2022-10-19T11:10:45.176Z,2.20
2022-10-19T11:11:45.155Z,1.80
2022-10-19T11:12:45.131Z,2.20
2022-10-19T11:13:45.114Z,2.00
2022-10-19T11:14:45.088Z,2.00
2022-10-19T11:15:45.072Z,2.20
2022-10-19T11:16:45.045Z,1.90
2022-10-19T11:17:45.026Z,2.10
2022-10-19T11:18:45.002Z,2.10
2022-10-19T11:19:44.983Z,2.10
2022-10-19T11:20:44.958Z,2.20
2022-10-19T11:21:44.937Z,2.10
2022-10-19T11:22:44.933Z,2.40
2022-10-19T11:23:44.895Z,2.60
2022-10-19T11:24:47.843Z,2.60
2022-10-19T11:25:44.855Z,2.80
2022-10-19T11:26:44.832Z,3.00
2022-10-19T11:27:44.814Z,2.90
2022-10-19T11:28:44.786Z,3.20
2022-10-19T11:29:44.765Z,2.90
2022-10-19T11:30:50.496Z,2.70
2022-10-19T11:31:44.724Z,3.00
2022-10-19T11:32:46.071Z,2.60
2022-10-19T11:33:44.680Z,3.00
2022-10-19T11:34:44.656Z,2.90
2022-10-19T11:35:44.633Z,2.90
2022-10-19T11:36:44.614Z,2.50
2022-10-19T11:37:49.940Z,3.00
2022-10-19T11:38:44.585Z,3.20
2022-10-19T11:39:44.547Z,3.10
2022-10-19T11:40:54.163Z,3.10
2022-10-19T11:41:44.501Z,3.20
2022-10-19T11:42:44.577Z,2.60
2022-10-19T11:43:44.461Z,3.20
2022-10-19T11:44:44.435Z,2.80
2022-10-19T11:45:44.413Z,2.90
2022-10-19T11:46:44.391Z,2.80
2022-10-19T11:47:44.373Z,2.50
2022-10-19T11:48:44.344Z,2.70
2022-10-19T11:49:44.335Z,2.70
2022-10-19T11:50:49.726Z,2.50
2022-10-19T11:51:44.284Z,2.60
2022-10-19T11:52:44.262Z,2.50
2022-10-19T11:53:44.237Z,2.60
2022-10-19T11:54:44.231Z,2.80
2022-10-19T11:55:44.193Z,2.80
2022-10-19T11:57:02.242Z,2.90
2022-10-19T11:57:44.149Z,3.00
2022-10-19T11:58:44.249Z,2.70
2022-10-19T11:59:44.105Z,2.70
2022-10-19T12:00:44.082Z,2.90
2022-10-19T12:01:44.172Z,2.80
2022-10-19T12:02:44.039Z,3.10
2022-10-19T12:03:44.018Z,2.70
2022-10-19T12:04:43.991Z,2.80
2022-10-19T12:05:43.974Z,3.00
2022-10-19T12:06:43.950Z,2.80
2022-10-19T12:07:43.928Z,2.70
2022-10-19T12:08:43.971Z,2.50
2022-10-19T12:09:43.886Z,2.80
2022-10-19T12:10:43.880Z,2.80
2022-10-19T12:11:43.842Z,2.80
2022-10-19T12:12:43.817Z,3.00
2022-10-19T12:13:43.799Z,3.00
2022-10-19T12:14:43.772Z,3.20
2022-10-19T12:15:43.757Z,2.60
2022-10-19T12:16:43.728Z,2.80
2022-10-19T12:17:43.706Z,2.80
2022-10-19T12:18:43.682Z,3.00
2022-10-19T12:19:43.664Z,3.00
2022-10-19T12:20:43.637Z,2.90
2022-10-19T12:21:43.621Z,2.60
2022-10-19T12:22:43.597Z,2.80
2022-10-19T12:23:43.575Z,2.40
2022-10-19T12:24:43.550Z,2.80
2022-10-19T12:25:43.531Z,2.80
2022-10-19T12:26:43.534Z,2.60
2022-10-19T12:27:43.483Z,2.80
2022-10-19T12:28:43.463Z,2.80
2022-10-19T12:29:43.441Z,2.70
2022-10-19T12:30:43.419Z,3.00
2022-10-19T12:31:43.397Z,3.20
2022-10-19T12:32:43.371Z,2.80
2022-10-19T12:33:43.353Z,2.80
2022-10-19T12:34:43.340Z,3.30
2022-10-19T12:35:43.308Z,2.80
2022-10-19T12:36:43.287Z,3.20
2022-10-19T12:37:43.263Z,3.20
2022-10-19T12:38:46.072Z,3.40
2022-10-19T12:39:43.218Z,2.80
2022-10-19T12:40:43.201Z,3.20
2022-10-19T12:41:43.175Z,3.00
2022-10-19T12:42:43.170Z,2.90
2022-10-19T12:43:43.133Z,3.30
2022-10-19T12:44:43.110Z,3.50
2022-10-19T12:45:43.087Z,3.10
2022-10-19T12:46:43.066Z,2.90
2022-10-19T12:47:43.046Z,3.30
2022-10-19T12:48:43.019Z,3.20
2022-10-19T12:49:42.998Z,3.10
2022-10-19T12:50:42.979Z,3.00
2022-10-19T12:51:42.954Z,3.10
2022-10-19T12:52:42.929Z,3.30
2022-10-19T12:53:42.917Z,3.30
2022-10-19T12:54:42.889Z,3.20
2022-10-19T12:55:44.953Z,3.40
2022-10-19T12:56:42.843Z,3.00
2022-10-19T12:57:42.820Z,3.30
2022-10-19T12:58:47.658Z,2.90
2022-10-19T12:59:42.774Z,3.20
2022-10-19T13:00:42.770Z,2.80
2022-10-19T13:01:42.735Z,2.80
2022-10-19T13:02:42.757Z,3.20
2022-10-19T13:03:42.696Z,2.50
2022-10-19T13:04:42.664Z,2.60
2022-10-19T13:05:42.663Z,2.50
2022-10-19T13:06:42.623Z,2.70
2022-10-19T13:07:42.700Z,2.50
2022-10-19T13:08:42.636Z,2.60
2022-10-19T13:09:42.562Z,2.30
2022-10-19T13:10:42.533Z,2.60
2022-10-19T13:11:42.515Z,2.40
2022-10-19T13:12:42.488Z,2.30
2022-10-19T13:13:42.468Z,2.40
2022-10-19T13:14:42.462Z,2.40
2022-10-19T13:15:42.422Z,2.30
2022-10-19T13:16:42.400Z,2.30
2022-10-19T13:17:42.377Z,2.50
2022-10-19T13:18:42.357Z,1.90
2022-10-19T13:19:42.335Z,2.50
2022-10-19T13:20:42.314Z,2.00
2022-10-19T13:21:42.292Z,2.30
2022-10-19T13:22:42.268Z,2.00
2022-10-19T13:23:42.337Z,2.10
2022-10-19T13:24:42.236Z,2.20
2022-10-19T13:25:42.202Z,2.40
2022-10-19T13:26:42.179Z,2.30
2022-10-19T13:27:42.158Z,2.00